Time;durP1;ratioP1;P1;durP2;ratioP2;P2;SDS_P1;SDS_P2;PMS_P1;PMS_P2;Temp;Humidity;BMP_temperature;BMP_pressure;BME280_temperature;BME280_humidity;BME280_pressure;Samples;Min_cycle;Max_cycle;Signal;HPM_P1;HPM_P2
2022/07/14 00:00:21;;;;;;;1.93;1.80;;;27.50;42.60;;;;;;5031025;28;20189;-44
2022/07/14 00:02:47;;;;;;;2.03;1.53;;;27.50;42.70;;;;;;5024959;28;20193;-44
2022/07/14 00:05:12;;;;;;;4.40;1.73;;;27.50;42.40;;;;;;5027796;28;20198;-44
2022/07/14 00:07:38;;;;;;;2.60;2.00;;;27.50;42.50;;;;;;5026903;28;20197;-45
2022/07/14 00:10:04;;;;;;;1.80;1.70;;;27.50;42.70;;;;;;5023717;28;20704;-44
2022/07/14 00:12:30;;;;;;;1.93;1.83;;;27.50;42.50;;;;;;5022865;28;20247;-44
2022/07/14 00:14:55;;;;;;;2.30;2.03;;;27.30;42.90;;;;;;5027061;28;20939;-45
2022/07/14 00:17:21;;;;;;;1.70;1.60;;;27.20;43.40;;;;;;5026134;28;20189;-44
2022/07/14 00:19:46;;;;;;;2.17;1.90;;;27.20;43.20;;;;;;5025565;28;20879;-44
2022/07/14 00:22:12;;;;;;;3.13;1.70;;;27.30;43.20;;;;;;5022391;28;20201;-44
2022/07/14 00:24:38;;;;;;;1.80;1.70;;;27.20;43.30;;;;;;5025291;28;20193;-45
2022/07/14 00:27:04;;;;;;;1.50;1.33;;;27.10;43.40;;;;;;5023181;28;20288;-44
2022/07/14 00:29:29;;;;;;;2.43;1.83;;;27.10;43.50;;;;;;5027375;28;20220;-44
2022/07/14 00:31:55;;;;;;;3.23;1.93;;;27.10;43.60;;;;;;5028166;28;20201;-43
2022/07/14 00:34:21;;;;;;;1.87;1.77;;;27.10;43.70;;;;;;5029105;28;20223;-45
2022/07/14 00:36:46;;;;;;;2.63;1.87;;;27.10;43.80;;;;;;5027814;28;20881;-44
2022/07/14 00:39:12;;;;;;;1.70;1.60;;;27.10;43.90;;;;;;5019738;28;20197;-44
2022/07/14 00:41:38;;;;;;;2.70;1.60;;;27.10;44.10;;;;;;5022720;28;20189;-43
2022/07/14 00:44:03;;;;;;;1.97;1.87;;;27.10;44.10;;;;;;5023893;28;20204;-46
2022/07/14 00:46:29;;;;;;;1.90;1.70;;;27.10;44.10;;;;;;5024949;28;20221;-44
2022/07/14 00:48:55;;;;;;;2.33;1.90;;;27.20;44.00;;;;;;5025934;28;20217;-44
2022/07/14 00:51:21;;;;;;;1.97;1.83;;;27.20;43.80;;;;;;5018292;28;20209;-44
2022/07/14 00:53:55;;;;;;;2.10;2.00;;;27.20;44.10;;;;;;5023155;28;20436;-43
2022/07/14 00:56:21;;;;;;;2.37;2.17;;;27.30;43.70;;;;;;5025452;28;20197;-44
2022/07/14 00:58:47;;;;;;;2.40;1.70;;;27.20;43.70;;;;;;5026582;28;20455;-46
2022/07/14 01:01:12;;;;;;;1.67;1.57;;;27.20;43.80;;;;;;5028381;28;20524;-44
2022/07/14 01:03:38;;;;;;;1.40;1.30;;;27.10;44.00;;;;;;5022944;28;20264;-45
2022/07/14 01:06:04;;;;;;;6.87;1.83;;;27.10;44.10;;;;;;5027097;28;21000;-44
2022/07/14 01:08:30;;;;;;;3.33;1.80;;;27.10;44.20;;;;;;5018884;28;20232;-43
2022/07/14 01:10:55;;;;;;;2.57;1.60;;;27.10;44.10;;;;;;5020564;28;20446;-44
2022/07/14 01:13:21;;;;;;;2.60;1.70;;;27.00;44.60;;;;;;5019227;28;20189;-44
2022/07/14 01:15:47;;;;;;;1.50;1.40;;;26.90;44.60;;;;;;5019834;28;20229;-44
2022/07/14 01:18:13;;;;;;;2.87;2.03;;;27.00;44.50;;;;;;5026202;28;20200;-45
2022/07/14 01:20:38;;;;;;;1.67;1.57;;;27.00;44.50;;;;;;5024496;28;20259;-44
2022/07/14 01:23:04;;;;;;;1.80;1.70;;;27.00;44.40;;;;;;5026690;28;20947;-44
2022/07/14 01:25:31;;;;;;;2.20;2.00;;;27.00;44.40;;;;;;5024464;28;20198;-44
2022/07/14 01:27:56;;;;;;;3.07;1.60;;;26.90;44.50;;;;;;5027154;28;20239;-44
2022/07/14 01:30:22;;;;;;;1.57;1.47;;;26.70;45.00;;;;;;5026892;28;20514;-44
2022/07/14 01:32:47;;;;;;;2.80;1.50;;;26.60;45.40;;;;;;5023082;28;20617;-44
2022/07/14 01:35:13;;;;;;;2.27;1.80;;;26.70;45.30;;;;;;5019387;28;20220;-44
2022/07/14 01:37:39;;;;;;;4.40;2.00;;;26.80;45.10;;;;;;5022717;28;20324;-44
2022/07/14 01:40:05;;;;;;;2.00;1.90;;;26.80;45.00;;;;;;5016313;28;20236;-43
2022/07/14 01:42:31;;;;;;;2.97;1.93;;;26.80;45.00;;;;;;5028927;28;20719;-44
2022/07/14 01:44:57;;;;;;;2.97;1.90;;;26.80;45.10;;;;;;5019571;28;20582;-44
2022/07/14 01:47:22;;;;;;;1.90;1.80;;;26.80;45.20;;;;;;5025364;28;20193;-43
2022/07/14 01:49:48;;;;;;;2.90;1.90;;;26.70;45.90;;;;;;5020353;28;20227;-43
2022/07/14 01:52:13;;;;;;;4.30;2.13;;;26.60;45.60;;;;;;5024408;28;20259;-44
2022/07/14 01:54:39;;;;;;;1.80;1.70;;;26.60;45.60;;;;;;5026807;28;20794;-44
2022/07/14 01:57:08;;;;;;;2.13;1.77;;;26.60;45.60;;;;;;5024629;28;20660;-44
2022/07/14 01:59:34;;;;;;;3.13;1.70;;;26.50;45.50;;;;;;5023739;28;20193;-44
2022/07/14 02:01:59;;;;;;;3.00;1.90;;;26.40;46.00;;;;;;5020249;28;20826;-43
2022/07/14 02:04:25;;;;;;;4.33;1.80;;;26.40;45.80;;;;;;5022187;28;20684;-43
2022/07/14 02:06:53;;;;;;;3.50;1.60;;;26.40;45.80;;;;;;5027235;28;20222;-44
2022/07/14 02:09:20;;;;;;;1.83;1.73;;;26.40;45.80;;;;;;5017811;28;20286;-44
2022/07/14 02:14:31;;;;;;;2.67;1.87;;;26.60;45.40;;;;;;5027901;28;21346;-44
2022/07/14 02:16:57;;;;;;;3.10;1.63;;;26.40;45.70;;;;;;5025629;28;20518;-43
2022/07/14 02:19:26;;;;;;;1.93;1.83;;;26.10;46.30;;;;;;5016675;28;20794;-43
2022/07/14 02:21:53;;;;;;;3.03;1.70;;;26.20;47.00;;;;;;5019074;28;20793;-45
2022/07/14 02:24:20;;;;;;;6.20;2.17;;;26.30;46.20;;;;;;5024432;28;20528;-44
2022/07/14 02:26:48;;;;;;;3.80;1.90;;;26.40;45.90;;;;;;5029178;28;20435;-44
2022/07/14 02:29:14;;;;;;;3.00;2.10;;;26.40;45.80;;;;;;5024188;28;20507;-44
2022/07/14 02:31:39;;;;;;;1.80;1.70;;;26.40;45.70;;;;;;5022547;28;20444;-44
2022/07/14 02:34:05;;;;;;;1.70;1.60;;;26.40;45.80;;;;;;5025814;28;20204;-44
2022/07/14 02:36:31;;;;;;;1.63;1.53;;;26.40;45.80;;;;;;5019337;28;20677;-43
2022/07/14 02:38:57;;;;;;;1.77;1.67;;;26.40;45.60;;;;;;5028982;28;20617;-43
2022/07/14 02:41:23;;;;;;;2.70;1.53;;;26.40;45.40;;;;;;5024119;28;20515;-44
2022/07/14 02:43:49;;;;;;;2.90;1.50;;;26.40;45.30;;;;;;5024508;28;20200;-43
2022/07/14 02:46:14;;;;;;;2.00;1.80;;;26.40;45.40;;;;;;5024733;28;20280;-43
2022/07/14 02:48:40;;;;;;;3.03;1.50;;;26.40;45.30;;;;;;5019214;28;20302;-43
2022/07/14 02:51:07;;;;;;;4.30;2.57;;;26.30;45.70;;;;;;5028839;28;20201;-44
2022/07/14 02:53:34;;;;;;;2.13;2.00;;;26.10;45.80;;;;;;5021638;28;20272;-43
2022/07/14 02:56:05;;;;;;;3.50;2.30;;;26.10;46.20;;;;;;5015519;28;20958;-44
2022/07/14 02:58:30;;;;;;;5.10;1.83;;;26.20;46.00;;;;;;5027189;28;20435;-44
2022/07/14 03:00:56;;;;;;;3.20;1.73;;;26.20;45.80;;;;;;5015313;28;20536;-44
2022/07/14 03:03:22;;;;;;;1.90;1.80;;;26.10;46.30;;;;;;5021723;28;20201;-44
2022/07/14 03:05:48;;;;;;;2.90;1.60;;;26.10;46.40;;;;;;5019524;28;20455;-44
2022/07/14 03:08:14;;;;;;;2.03;1.70;;;26.10;46.30;;;;;;5024056;28;20492;-44
2022/07/14 03:10:40;;;;;;;3.10;1.97;;;26.10;46.20;;;;;;5023371;28;20272;-43
2022/07/14 03:13:06;;;;;;;4.70;1.67;;;26.10;46.30;;;;;;5022446;28;20185;-44
2022/07/14 03:15:32;;;;;;;1.90;1.80;;;26.10;46.20;;;;;;5022698;28;20436;-45
2022/07/14 03:17:58;;;;;;;3.17;2.77;;;26.10;46.30;;;;;;5027115;28;20235;-44
2022/07/14 03:20:23;;;;;;;4.60;3.50;;;26.10;46.10;;;;;;5024231;28;20552;-44
2022/07/14 03:22:49;;;;;;;3.90;2.60;;;26.10;46.10;;;;;;5028240;28;20197;-43
2022/07/14 03:25:15;;;;;;;3.30;2.00;;;26.20;46.10;;;;;;5023985;28;20197;-43
2022/07/14 03:27:41;;;;;;;2.83;2.07;;;26.10;46.00;;;;;;5021897;28;20193;-44
2022/07/14 03:30:08;;;;;;;2.20;2.00;;;26.10;46.00;;;;;;5021615;28;20210;-44
2022/07/14 03:32:34;;;;;;;3.50;2.13;;;26.10;46.10;;;;;;5021906;28;20439;-44
2022/07/14 03:35:03;;;;;;;2.60;2.30;;;26.00;46.40;;;;;;5032768;28;20539;-45
2022/07/14 03:37:29;;;;;;;2.00;1.80;;;25.70;47.00;;;;;;5025270;28;20479;-43
2022/07/14 03:39:55;;;;;;;1.90;1.80;;;25.70;46.90;;;;;;5023509;28;20537;-44
2022/07/14 03:42:21;;;;;;;2.23;2.10;;;25.70;46.90;;;;;;5059972;28;20486;-44
2022/07/14 03:44:48;;;;;;;3.80;2.17;;;25.50;47.30;;;;;;5024931;28;20193;-44
2022/07/14 03:47:14;;;;;;;3.00;2.20;;;25.50;47.30;;;;;;5025470;28;20448;-44
2022/07/14 03:49:40;;;;;;;4.37;2.30;;;25.40;47.40;;;;;;5031238;28;20500;-46
2022/07/14 03:52:06;;;;;;;2.10;2.00;;;25.40;47.30;;;;;;5010304;28;20462;-44
2022/07/14 03:54:32;;;;;;;3.93;1.90;;;25.20;47.80;;;;;;5020437;28;20290;-44
2022/07/14 03:56:57;;;;;;;1.97;1.87;;;25.10;48.30;;;;;;5025113;28;20526;-45
2022/07/14 03:59:23;;;;;;;2.83;2.43;;;25.10;48.30;;;;;;5027777;28;20214;-44
2022/07/14 04:01:48;;;;;;;3.20;1.83;;;25.20;48.00;;;;;;5027173;28;20189;-44
2022/07/14 04:04:14;;;;;;;2.13;1.93;;;25.30;47.70;;;;;;5026672;28;20205;-45
2022/07/14 04:06:40;;;;;;;2.47;2.20;;;25.30;47.70;;;;;;5027794;28;20280;-44
2022/07/14 04:09:06;;;;;;;1.90;1.80;;;25.40;47.60;;;;;;5023882;28;20228;-45
2022/07/14 04:11:32;;;;;;;2.27;1.70;;;25.40;47.50;;;;;;5025549;28;20221;-46
2022/07/14 04:13:58;;;;;;;2.33;2.13;;;25.40;47.50;;;;;;5023547;28;20934;-44
2022/07/14 04:16:23;;;;;;;2.37;2.00;;;25.40;47.50;;;;;;5027140;28;20674;-45
2022/07/14 04:18:49;;;;;;;5.73;2.03;;;25.40;47.40;;;;;;5021552;28;20201;-44
2022/07/14 04:21:14;;;;;;;2.50;2.30;;;25.40;47.40;;;;;;5029356;28;20272;-45
2022/07/14 04:23:40;;;;;;;1.70;1.60;;;25.40;47.30;;;;;;5026173;28;20193;-45
2022/07/14 04:26:07;;;;;;;2.30;1.73;;;25.40;47.20;;;;;;5029971;28;20316;-44
2022/07/14 04:28:32;;;;;;;2.00;1.80;;;25.40;47.20;;;;;;5019294;28;20260;-44
2022/07/14 04:30:58;;;;;;;4.70;2.03;;;25.40;47.30;;;;;;5025533;28;20940;-47
2022/07/14 04:33:24;;;;;;;1.63;1.53;;;25.30;47.40;;;;;;5018592;28;20194;-44
2022/07/14 04:35:50;;;;;;;2.17;2.03;;;25.30;47.50;;;;;;5019227;28;20196;-43
2022/07/14 04:38:15;;;;;;;2.27;2.07;;;25.30;47.90;;;;;;5027133;28;20475;-45
2022/07/14 04:40:52;;;;;;;3.47;1.77;;;25.40;48.00;;;;;;5026642;28;20212;-43
2022/07/14 04:43:18;;;;;;;2.30;1.87;;;25.40;47.80;;;;;;5021083;28;20931;-44
2022/07/14 04:45:45;;;;;;;2.13;2.03;;;25.50;47.60;;;;;;5019964;28;20452;-45
2022/07/14 04:48:11;;;;;;;2.63;1.80;;;25.50;47.60;;;;;;5025801;28;20476;-44
2022/07/14 04:53:25;;;;;;;3.10;2.13;;;25.40;47.60;;;;;;5027556;28;20251;-50
2022/07/14 04:55:55;;;;;;;2.57;2.37;;;25.40;47.70;;;;;;5024726;28;20443;-44
2022/07/14 04:58:24;;;;;;;2.50;2.30;;;25.30;47.80;;;;;;5028368;28;20961;-44
2022/07/14 05:00:49;;;;;;;3.33;2.27;;;25.30;47.80;;;;;;5032210;28;20280;-44
2022/07/14 05:03:15;;;;;;;1.93;1.83;;;25.40;47.80;;;;;;5032812;28;20986;-44
2022/07/14 05:05:41;;;;;;;2.33;2.13;;;25.50;47.70;;;;;;5028034;28;20197;-44
2022/07/14 05:08:07;;;;;;;2.77;2.23;;;25.50;47.70;;;;;;5029880;28;20518;-44
2022/07/14 05:10:32;;;;;;;2.60;2.40;;;25.50;47.70;;;;;;5030214;28;20576;-43
2022/07/14 05:12:58;;;;;;;2.53;2.33;;;25.20;48.30;;;;;;5030950;28;20208;-42
2022/07/14 05:15:23;;;;;;;2.40;2.13;;;24.70;49.50;;;;;;5029477;28;20265;-43
2022/07/14 05:17:49;;;;;;;2.03;1.93;;;24.30;50.40;;;;;;5029142;28;20284;-42
2022/07/14 05:20:14;;;;;;;2.10;2.00;;;24.20;50.80;;;;;;5025511;28;20267;-43
2022/07/14 05:22:41;;;;;;;2.13;2.00;;;24.00;51.60;;;;;;5030938;28;20197;-43
2022/07/14 05:25:12;;;;;;;2.93;2.13;;;24.40;50.90;;;;;;5029493;28;20197;-44
2022/07/14 05:27:38;;;;;;;3.67;1.90;;;24.80;50.10;;;;;;5029178;28;20444;-43
2022/07/14 05:30:05;;;;;;;2.57;2.00;;;25.10;49.30;;;;;;5030281;28;20492;-46
2022/07/14 05:32:31;;;;;;;2.10;1.83;;;25.40;48.90;;;;;;5023528;28;20445;-44
2022/07/14 05:34:58;;;;;;;2.50;1.90;;;25.60;48.40;;;;;;5020238;28;20444;-44
2022/07/14 05:37:24;;;;;;;2.73;1.77;;;25.80;48.00;;;;;;5026189;28;20240;-45
2022/07/14 05:39:50;;;;;;;2.40;2.20;;;25.90;47.50;;;;;;5027471;28;20444;-47
2022/07/14 05:42:15;;;;;;;2.47;2.20;;;25.90;47.80;;;;;;5026241;28;20186;-46
2022/07/14 05:44:41;;;;;;;3.50;2.27;;;25.90;47.70;;;;;;5027701;28;20565;-45
2022/07/14 05:47:06;;;;;;;2.90;2.53;;;25.60;48.20;;;;;;5027600;28;20205;-45
2022/07/14 05:49:32;;;;;;;3.80;2.00;;;25.40;48.60;;;;;;5029114;28;20232;-47
2022/07/14 05:51:58;;;;;;;2.70;2.50;;;25.40;48.80;;;;;;5029703;28;20684;-47
2022/07/14 05:54:23;;;;;;;2.40;2.30;;;25.40;49.00;;;;;;5021774;28;20193;-44
2022/07/14 05:56:49;;;;;;;3.63;2.27;;;25.20;49.40;;;;;;5022675;28;20675;-46
2022/07/14 05:59:14;;;;;;;3.17;2.40;;;25.00;50.40;;;;;;5029601;28;20197;-45
2022/07/14 06:01:40;;;;;;;3.00;2.50;;;25.00;51.00;;;;;;5030858;28;20197;-46
2022/07/14 06:04:06;;;;;;;4.83;2.30;;;25.20;50.60;;;;;;5030987;28;20200;-47
2022/07/14 06:06:31;;;;;;;3.87;2.70;;;25.30;50.00;;;;;;5031113;28;20533;-44
2022/07/14 06:08:57;;;;;;;3.10;2.37;;;25.50;49.70;;;;;;5030428;28;20699;-44
2022/07/14 06:11:22;;;;;;;2.50;2.30;;;25.50;49.60;;;;;;5031343;28;20185;-45
2022/07/14 06:13:48;;;;;;;3.63;2.50;;;25.50;50.00;;;;;;5030854;28;20189;-44
2022/07/14 06:16:13;;;;;;;2.83;2.50;;;25.60;49.60;;;;;;5031154;28;20683;-44
2022/07/14 06:18:39;;;;;;;2.50;2.30;;;25.70;49.10;;;;;;5028968;28;20256;-45
2022/07/14 06:21:09;;;;;;;2.73;2.53;;;25.90;48.90;;;;;;5030895;28;20197;-44
2022/07/14 06:23:35;;;;;;;3.43;2.87;;;26.10;48.30;;;;;;5030725;28;20209;-45
2022/07/14 06:26:07;;;;;;;3.00;2.40;;;26.20;47.80;;;;;;5030822;28;20424;-44
2022/07/14 06:28:32;;;;;;;3.30;3.00;;;26.30;47.20;;;;;;5030392;28;20216;-44
2022/07/14 06:30:58;;;;;;;3.07;2.70;;;26.10;47.30;;;;;;5030651;28;20432;-44
2022/07/14 06:33:24;;;;;;;3.90;2.70;;;26.10;47.60;;;;;;5030425;28;20199;-44
2022/07/14 06:35:49;;;;;;;3.53;2.33;;;26.10;47.80;;;;;;5030729;28;20201;-44
2022/07/14 06:38:15;;;;;;;2.57;2.37;;;26.40;47.60;;;;;;5030329;28;20331;-45
2022/07/14 06:40:41;;;;;;;2.80;2.60;;;26.60;47.20;;;;;;5030618;28;20574;-45
2022/07/14 06:43:06;;;;;;;4.37;2.17;;;26.80;46.70;;;;;;5030452;28;20416;-44
2022/07/14 06:45:33;;;;;;;3.17;1.83;;;26.80;46.30;;;;;;5022634;28;20427;-44
2022/07/14 06:47:59;;;;;;;5.13;2.00;;;26.80;46.30;;;;;;5030162;28;20243;-44
2022/07/14 06:50:24;;;;;;;2.90;2.70;;;26.90;46.40;;;;;;5030448;28;20923;-45
2022/07/14 06:52:50;;;;;;;7.80;2.63;;;27.20;46.00;;;;;;5030179;28;20193;-45
2022/07/14 06:55:17;;;;;;;2.33;2.07;;;27.50;45.40;;;;;;5030740;28;20190;-44
2022/07/14 06:57:43;;;;;;;2.47;2.27;;;27.70;45.00;;;;;;5029824;28;20197;-44
2022/07/14 07:00:09;;;;;;;2.73;2.40;;;27.60;44.90;;;;;;5030177;28;20469;-46
2022/07/14 07:02:37;;;;;;;2.10;2.00;;;27.70;45.00;;;;;;5030109;28;21016;-47
2022/07/14 07:07:56;;;;;;;2.00;1.70;;;28.20;44.50;;;;;;5034056;28;20488;-44
2022/07/14 07:10:21;;;;;;;2.00;1.90;;;28.40;43.90;;;;;;5034269;28;20473;-45
2022/07/14 07:12:47;;;;;;;5.10;2.23;;;28.60;42.90;;;;;;5032481;28;20519;-45
2022/07/14 07:15:13;;;;;;;3.60;2.70;;;28.80;42.00;;;;;;5034769;28;20197;-45
2022/07/14 07:17:38;;;;;;;5.57;2.50;;;28.90;42.20;;;;;;5033745;28;20605;-45
2022/07/14 07:20:05;;;;;;;3.30;2.37;;;29.10;42.20;;;;;;5034318;28;20539;-45
2022/07/14 07:22:30;;;;;;;2.40;2.20;;;29.30;40.00;;;;;;5033961;28;20196;-44
2022/07/14 07:24:56;;;;;;;4.27;2.03;;;29.40;39.50;;;;;;5034411;28;20428;-45
2022/07/14 07:27:22;;;;;;;4.17;2.13;;;29.40;39.80;;;;;;5033811;28;20275;-45
2022/07/14 07:29:48;;;;;;;3.03;2.10;;;29.40;40.20;;;;;;5034072;28;20614;-44
2022/07/14 07:32:13;;;;;;;9.77;2.60;;;29.50;38.60;;;;;;5034087;28;20268;-45
2022/07/14 07:34:39;;;;;;;2.30;2.10;;;29.50;39.70;;;;;;5033645;28;20548;-44
2022/07/14 07:37:05;;;;;;;4.63;2.67;;;29.60;39.10;;;;;;5034139;28;20228;-45
2022/07/14 07:39:33;;;;;;;2.60;2.40;;;29.60;40.10;;;;;;5031771;28;20557;-44
2022/07/14 07:42:00;;;;;;;3.30;2.10;;;29.80;39.60;;;;;;5034015;28;20201;-44
2022/07/14 07:44:30;;;;;;;2.50;2.30;;;30.00;39.20;;;;;;5029371;28;20441;-44
2022/07/14 07:46:56;;;;;;;2.40;2.07;;;30.20;38.30;;;;;;5032192;28;20490;-44
2022/07/14 07:49:22;;;;;;;3.47;2.13;;;30.10;38.40;;;;;;5033100;28;20479;-45
2022/07/14 07:51:47;;;;;;;2.30;1.90;;;30.30;38.60;;;;;;5033971;28;20507;-45
2022/07/14 07:54:13;;;;;;;2.40;2.20;;;30.60;38.00;;;;;;5033223;28;20271;-45
2022/07/14 07:56:39;;;;;;;2.13;2.00;;;30.90;37.90;;;;;;5033767;28;20221;-45
2022/07/14 07:59:04;;;;;;;2.50;2.00;;;31.20;36.50;;;;;;5033124;28;20207;-45
2022/07/14 08:01:30;;;;;;;2.20;2.00;;;31.50;37.10;;;;;;5033675;28;20653;-45
2022/07/14 08:03:55;;;;;;;7.33;2.30;;;31.60;35.10;;;;;;5033041;28;20196;-45
2022/07/14 08:06:21;;;;;;;2.10;1.90;;;31.70;35.70;;;;;;5031934;28;20556;-45
2022/07/14 08:08:47;;;;;;;3.10;2.03;;;32.00;35.40;;;;;;5032583;28;20271;-45
2022/07/14 08:11:12;;;;;;;2.40;2.20;;;32.20;35.40;;;;;;5033501;28;20189;-45
2022/07/14 08:13:38;;;;;;;2.80;2.30;;;32.20;34.60;;;;;;5033223;28;20262;-46
2022/07/14 08:16:04;;;;;;;3.63;1.93;;;32.40;34.30;;;;;;5033290;28;20207;-46
2022/07/14 08:18:30;;;;;;;3.47;2.17;;;32.50;34.00;;;;;;5031681;28;20197;-45
2022/07/14 08:20:56;;;;;;;2.20;2.00;;;32.80;34.60;;;;;;5033043;28;20426;-45
2022/07/14 08:23:21;;;;;;;2.20;2.00;;;33.00;34.50;;;;;;5032844;28;20189;-45
2022/07/14 08:25:47;;;;;;;3.30;2.13;;;33.20;33.80;;;;;;5032980;28;20657;-46
2022/07/14 08:28:13;;;;;;;4.40;1.80;;;33.30;33.40;;;;;;5032743;28;20213;-46
2022/07/14 08:30:39;;;;;;;2.07;1.97;;;33.50;33.00;;;;;;5032694;28;20276;-45
2022/07/14 08:33:05;;;;;;;3.10;2.03;;;33.60;32.80;;;;;;5031136;28;20424;-45
2022/07/14 08:35:33;;;;;;;2.23;2.00;;;33.60;32.30;;;;;;5033130;28;20423;-47
2022/07/14 08:37:59;;;;;;;2.00;1.90;;;33.50;32.10;;;;;;5032115;28;20247;-46
2022/07/14 08:40:26;;;;;;;2.77;2.20;;;33.70;31.80;;;;;;5032646;28;20416;-45
2022/07/14 08:42:53;;;;;;;2.00;1.90;;;33.90;32.10;;;;;;5032398;28;20185;-45
2022/07/14 08:45:22;;;;;;;4.70;2.30;;;33.90;31.50;;;;;;5026525;28;20432;-46
2022/07/14 08:47:48;;;;;;;8.53;2.60;;;34.10;31.30;;;;;;5032253;28;20436;-48
2022/07/14 08:50:19;;;;;;;2.10;1.90;;;34.30;32.80;;;;;;5032525;28;20484;-46
2022/07/14 08:52:46;;;;;;;6.00;1.90;;;34.20;30.50;;;;;;5032388;28;20428;-45
2022/07/14 08:55:14;;;;;;;2.73;2.53;;;34.40;30.90;;;;;;5032711;28;20467;-46
2022/07/14 08:57:40;;;;;;;2.30;1.70;;;34.80;30.60;;;;;;5032262;28;20436;-47
2022/07/14 09:00:14;;;;;;;5.87;1.90;;;35.00;30.40;;;;;;5030383;28;20424;-48
2022/07/14 09:02:53;;;;;;;4.70;2.13;;;35.30;29.90;;;;;;5032178;28;20444;-45
2022/07/14 09:05:18;;;;;;;2.40;2.20;;;35.50;29.80;;;;;;5032769;28;20438;-46
2022/07/14 09:07:44;;;;;;;3.83;2.37;;;35.60;29.60;;;;;;5031950;28;20416;-47
2022/07/14 09:10:13;;;;;;;4.80;2.57;;;35.60;29.50;;;;;;5031879;28;20312;-46
2022/07/14 09:12:41;;;;;;;2.13;2.03;;;35.80;29.30;;;;;;5031851;28;20573;-45
2022/07/14 09:18:01;;;;;;;5.10;2.40;;;36.00;28.80;;;;;;5031642;28;20531;-47
2022/07/14 09:20:29;;;;;;;3.57;2.10;;;35.70;29.20;;;;;;5031955;28;20424;-46
2022/07/14 09:22:57;;;;;;;2.67;2.47;;;35.90;30.00;;;;;;5031597;28;20507;-46
2022/07/14 09:25:25;;;;;;;2.23;2.13;;;36.10;29.10;;;;;;5032117;28;20501;-45
2022/07/14 09:27:51;;;;;;;4.10;2.20;;;36.20;29.20;;;;;;5030179;28;20427;-45
2022/07/14 09:30:17;;;;;;;4.13;2.63;;;36.30;29.00;;;;;;5031342;28;20490;-47
2022/07/14 09:32:45;;;;;;;4.73;2.10;;;36.40;29.20;;;;;;5031497;28;20420;-46
2022/07/14 09:35:13;;;;;;;2.50;2.10;;;36.50;29.00;;;;;;5032006;28;20288;-46
2022/07/14 09:37:39;;;;;;;2.60;2.40;;;36.70;28.90;;;;;;5031526;28;20518;-46
2022/07/14 09:40:09;;;;;;;3.07;2.63;;;36.60;28.40;;;;;;5031611;28;20566;-45
2022/07/14 09:42:51;;;;;;;2.63;2.30;;;36.30;29.00;;;;;;5031168;28;20436;-45
2022/07/14 09:45:23;;;;;;;3.83;2.67;;;36.40;29.10;;;;;;5025234;28;20478;-46
2022/07/14 09:47:59;;;;;;;3.00;2.70;;;36.20;29.00;;;;;;5031178;28;20806;-47
2022/07/14 09:50:44;;;;;;;2.90;2.63;;;36.30;29.30;;;;;;5031017;28;20881;-45
2022/07/14 09:53:23;;;;;;;3.97;3.03;;;36.30;29.20;;;;;;5030952;28;21008;-46
2022/07/14 09:55:56;;;;;;;3.90;2.73;;;36.50;29.40;;;;;;5029519;28;20803;-46
2022/07/14 09:58:23;;;;;;;5.03;2.27;;;36.60;29.20;;;;;;5030626;28;20452;-46
2022/07/14 10:01:08;;;;;;;2.53;2.30;;;36.70;28.40;;;;;;5030703;28;20927;-45
2022/07/14 10:03:35;;;;;;;3.73;2.63;;;36.70;27.60;;;;;;5018808;28;20460;-46
2022/07/14 10:06:02;;;;;;;3.50;2.40;;;36.80;27.70;;;;;;5031230;28;20507;-45
2022/07/14 10:08:30;;;;;;;3.00;2.33;;;36.70;28.20;;;;;;5030368;28;20482;-47
2022/07/14 10:10:58;;;;;;;2.77;2.57;;;36.90;27.60;;;;;;5031233;28;20518;-46
2022/07/14 10:13:24;;;;;;;3.00;2.40;;;37.10;27.30;;;;;;5030644;28;20478;-45
2022/07/14 10:15:55;;;;;;;3.30;2.33;;;37.30;26.90;;;;;;5031053;28;20416;-46
2022/07/14 10:18:22;;;;;;;3.83;2.60;;;37.50;26.50;;;;;;5030605;28;20438;-45
2022/07/14 10:20:50;;;;;;;5.43;2.27;;;37.80;24.70;;;;;;5029226;28;20960;-46
2022/07/14 10:23:18;;;;;;;2.70;2.50;;;38.00;25.50;;;;;;5030379;28;20973;-45
2022/07/14 10:25:49;;;;;;;3.50;2.60;;;37.80;25.10;;;;;;5031066;28;20573;-46
2022/07/14 10:28:16;;;;;;;3.93;2.60;;;37.60;25.10;;;;;;5030555;28;20489;-47
2022/07/14 10:31:00;;;;;;;6.50;2.70;;;37.90;25.40;;;;;;5030547;28;20435;-47
2022/07/14 10:33:47;;;;;;;2.83;2.60;;;38.20;24.90;;;;;;5030131;28;20427;-49
2022/07/14 10:36:17;;;;;;;2.70;2.50;;;38.60;24.70;;;;;;5030928;28;20917;-49
2022/07/14 10:39:05;;;;;;;3.10;2.47;;;38.90;25.00;;;;;;5029965;28;20557;-47
2022/07/14 10:41:43;;;;;;;3.93;2.30;;;39.10;24.70;;;;;;5030146;28;20423;-48
2022/07/14 10:44:23;;;;;;;3.37;2.27;;;39.40;24.30;;;;;;5028447;28;20922;-47
2022/07/14 10:46:51;;;;;;;3.00;2.50;;;39.30;22.90;;;;;;5027740;28;20469;-46
2022/07/14 10:49:18;;;;;;;3.40;2.07;;;39.10;21.20;;;;;;5028134;28;20493;-50
2022/07/14 10:51:48;;;;;;;2.30;2.20;;;39.20;20.50;;;;;;5030628;28;20424;-46
2022/07/14 10:54:27;;;;;;;3.83;2.50;;;39.40;20.70;;;;;;5030053;28;20470;-46
2022/07/14 10:57:14;;;;;;;4.23;2.33;;;39.40;20.70;;;;;;5030463;28;20465;-50
2022/07/14 10:59:42;;;;;;;2.03;1.93;;;39.20;20.30;;;;;;5029849;28;20530;-50
2022/07/14 11:02:14;;;;;;;2.20;2.10;;;39.40;20.30;;;;;;5020703;28;20470;-49
2022/07/14 11:05:04;;;;;;;2.60;2.10;;;39.60;21.00;;;;;;5029964;28;20921;-48
2022/07/14 11:07:32;;;;;;;5.33;2.10;;;40.00;21.30;;;;;;5029765;28;20570;-50
2022/07/14 11:09:58;;;;;;;3.73;2.23;;;40.20;21.30;;;;;;5030040;28;20589;-46
2022/07/14 11:12:24;;;;;;;2.53;2.40;;;40.50;20.80;;;;;;5029778;28;20514;-51
2022/07/14 11:14:49;;;;;;;4.63;2.17;;;40.70;20.30;;;;;;5028665;28;20208;-48
2022/07/14 11:17:37;;;;;;;2.87;2.67;;;40.80;19.50;;;;;;5030056;28;20201;-47
2022/07/14 11:20:08;;;;;;;2.50;2.23;;;40.80;19.00;;;;;;5030118;28;20192;-50
2022/07/14 11:22:34;;;;;;;3.30;2.00;;;40.70;19.50;;;;;;5029946;28;20462;-49
2022/07/14 11:25:01;;;;;;;2.83;2.50;;;40.70;20.10;;;;;;5030449;28;20428;-48
2022/07/14 11:27:39;;;;;;;2.30;2.07;;;40.70;20.00;;;;;;5029797;28;20481;-49
2022/07/14 11:30:20;;;;;;;3.20;2.73;;;40.70;19.30;;;;;;5030149;28;20568;-50
2022/07/14 11:32:56;;;;;;;14.00;3.03;;;40.90;20.50;;;;;;5029471;28;20435;-47
2022/07/14 11:38:41;;;;;;;6.67;2.50;;;41.40;20.90;;;;;;5009888;28;20451;-49
2022/07/14 11:41:13;;;;;;;4.10;2.20;;;41.50;20.10;;;;;;5010363;28;21022;-49
2022/07/14 11:43:50;;;;;;;3.40;2.20;;;41.50;19.90;;;;;;5008238;28;20544;-49
2022/07/14 11:46:20;;;;;;;2.13;1.93;;;41.50;19.10;;;;;;5004170;28;20951;-44
2022/07/14 11:48:53;;;;;;;3.80;2.60;;;41.50;19.20;;;;;;5009405;28;20585;-44
2022/07/14 11:51:23;;;;;;;5.60;2.37;;;41.40;19.30;;;;;;5010331;28;20966;-44
2022/07/14 11:53:55;;;;;;;4.10;2.47;;;41.50;20.00;;;;;;5013064;28;20436;-47
2022/07/14 11:56:24;;;;;;;3.27;2.20;;;41.50;19.40;;;;;;5014078;28;20795;-45
2022/07/14 11:58:52;;;;;;;2.30;2.00;;;41.60;20.00;;;;;;5013089;28;20531;-44
2022/07/14 12:01:18;;;;;;;7.03;3.03;;;41.50;20.40;;;;;;5013901;28;20439;-47
2022/07/14 12:03:44;;;;;;;3.63;2.07;;;41.60;20.00;;;;;;5013282;28;20490;-44
2022/07/14 12:06:10;;;;;;;2.70;2.50;;;41.80;20.70;;;;;;5014022;28;20443;-48
2022/07/14 12:08:37;;;;;;;3.87;2.70;;;41.40;19.50;;;;;;5011407;28;20594;-47
2022/07/14 12:11:12;;;;;;;8.53;2.70;;;41.10;20.10;;;;;;5013737;28;20930;-47
2022/07/14 12:14:08;;;;;;;4.47;2.70;;;41.00;20.70;;;;;;5013379;28;20794;-46
2022/07/14 12:16:43;;;;;;;3.03;2.83;;;41.00;21.00;;;;;;5013776;28;20456;-47
2022/07/14 12:19:10;;;;;;;2.53;2.33;;;40.80;20.60;;;;;;5012789;28;20537;-44
2022/07/14 12:21:36;;;;;;;3.20;2.80;;;40.70;20.60;;;;;;5013786;28;20943;-47
2022/07/14 12:24:03;;;;;;;2.30;2.10;;;40.60;21.30;;;;;;5012775;28;20444;-44
2022/07/14 12:26:30;;;;;;;3.00;2.80;;;40.90;21.70;;;;;;5013550;28;20435;-47
2022/07/14 12:29:00;;;;;;;5.13;2.20;;;41.00;20.60;;;;;;5012364;28;20487;-44
2022/07/14 12:31:27;;;;;;;3.50;2.20;;;40.80;20.90;;;;;;5013506;28;20459;-48
2022/07/14 12:33:56;;;;;;;2.60;2.40;;;41.00;21.20;;;;;;5012838;28;20448;-47
2022/07/14 12:36:25;;;;;;;4.43;2.80;;;41.10;20.70;;;;;;5014912;28;20517;-48
2022/07/14 12:38:51;;;;;;;3.77;2.40;;;41.20;21.20;;;;;;5031906;28;20518;-47
2022/07/14 12:41:27;;;;;;;6.30;2.90;;;41.40;20.80;;;;;;5033063;28;20424;-44
2022/07/14 12:43:54;;;;;;;2.50;2.30;;;41.20;20.40;;;;;;5032253;28;20520;-44
2022/07/14 12:46:23;;;;;;;3.57;2.60;;;41.10;20.50;;;;;;5025919;28;20808;-43
2022/07/14 12:48:54;;;;;;;4.00;2.63;;;41.00;20.40;;;;;;5031896;28;20994;-43
2022/07/14 12:51:29;;;;;;;2.50;2.30;;;41.10;20.40;;;;;;5032777;28;20430;-43
2022/07/14 12:53:58;;;;;;;6.60;2.93;;;40.90;20.80;;;;;;5032250;28;20442;-47
2022/07/14 12:56:29;;;;;;;3.37;2.30;;;40.80;20.80;;;;;;5032590;28;20521;-48
2022/07/14 12:59:01;;;;;;;6.73;2.60;;;40.70;20.70;;;;;;5031828;28;20427;-43
2022/07/14 13:01:27;;;;;;;4.40;2.57;;;40.30;20.60;;;;;;5032311;28;20525;-43
2022/07/14 13:04:02;;;;;;;3.80;2.17;;;40.10;20.50;;;;;;5029706;28;20435;-43